createdAt,value
2018-02-12T00:00:18.217Z,0
2018-02-12T00:01:18.784Z,0
2018-02-12T00:02:19.348Z,0
2018-02-12T00:03:19.914Z,0
2018-02-12T00:04:20.482Z,0
2018-02-12T00:05:21.047Z,0
2018-02-12T00:06:21.611Z,0
2018-02-12T00:07:22.178Z,0
2018-02-12T00:08:22.746Z,0
2018-02-12T00:09:23.311Z,0
2018-02-12T00:10:23.884Z,0
2018-02-12T00:11:24.460Z,0
2018-02-12T00:12:25.027Z,0
2018-02-12T00:13:25.591Z,0
2018-02-12T00:14:26.157Z,0
2018-02-12T00:15:26.724Z,0
2018-02-12T00:16:27.291Z,0
2018-02-12T00:17:27.858Z,0
2018-02-12T00:18:28.439Z,0
2018-02-12T00:19:29.007Z,0
2018-02-12T00:20:29.576Z,0
2018-02-12T00:21:30.138Z,0
2018-02-12T00:22:30.708Z,0
2018-02-12T00:23:31.275Z,0
2018-02-12T00:24:31.842Z,0
2018-02-12T00:25:32.408Z,0
2018-02-12T00:26:32.973Z,0
2018-02-12T00:27:33.543Z,0
2018-02-12T00:28:34.110Z,0
2018-02-12T00:29:34.677Z,0
2018-02-12T00:30:35.243Z,0
2018-02-12T00:31:35.807Z,0
2018-02-12T00:32:36.373Z,0
2018-02-12T00:33:36.943Z,0
2018-02-12T00:34:37.509Z,0
2018-02-12T00:35:38.074Z,0
2018-02-12T00:36:38.640Z,0
2018-02-12T00:37:39.205Z,0
2018-02-12T00:38:39.772Z,0
2018-02-12T00:39:40.339Z,0
2018-02-12T00:40:40.910Z,0
2018-02-12T00:41:41.473Z,0
2018-02-12T00:42:42.042Z,0
2018-02-12T00:43:42.605Z,0
2018-02-12T00:44:43.174Z,0
2018-02-12T00:45:43.739Z,0
2018-02-12T00:46:44.306Z,0
2018-02-12T00:47:44.871Z,0
2018-02-12T00:48:45.437Z,0
2018-02-12T00:49:46.003Z,0
2018-02-12T00:50:46.569Z,0
2018-02-12T00:51:47.148Z,0
2018-02-12T00:52:47.713Z,0
2018-02-12T00:53:48.278Z,0
2018-02-12T00:54:48.845Z,0
2018-02-12T00:55:49.411Z,0
2018-02-12T00:56:49.978Z,0
2018-02-12T00:57:50.544Z,0
2018-02-12T00:58:51.124Z,0
2018-02-12T00:59:51.689Z,0
2018-02-12T01:00:52.256Z,0
2018-02-12T01:01:52.821Z,0
2018-02-12T01:02:53.389Z,0
2018-02-12T01:03:53.956Z,0
2018-02-12T01:04:54.522Z,0
2018-02-12T01:05:55.088Z,0
2018-02-12T01:06:55.654Z,0
2018-02-12T01:07:56.218Z,0
2018-02-12T01:08:56.784Z,0
2018-02-12T01:09:57.353Z,0
2018-02-12T01:10:57.916Z,0
2018-02-12T01:11:58.484Z,0
2018-02-12T01:12:59.051Z,0
2018-02-12T01:13:59.617Z,0
2018-02-12T01:15:00.182Z,0
2018-02-12T01:16:00.748Z,0
2018-02-12T01:17:01.316Z,0
2018-02-12T01:18:01.897Z,0
2018-02-12T01:19:02.464Z,0
2018-02-12T01:20:03.031Z,0
2018-02-12T01:21:03.611Z,0
2018-02-12T01:22:04.178Z,0
2018-02-12T01:23:04.744Z,0
2018-02-12T01:24:05.310Z,0
2018-02-12T01:25:05.876Z,0
2018-02-12T01:26:06.445Z,0
2018-02-12T01:27:07.012Z,0
2018-02-12T01:28:07.576Z,0
2018-02-12T01:29:08.142Z,0
2018-02-12T01:30:08.708Z,0
2018-02-12T01:31:09.288Z,0
2018-02-12T01:32:09.854Z,0
2018-02-12T01:33:10.420Z,0
2018-02-12T01:34:10.988Z,0
2018-02-12T01:35:11.569Z,0
2018-02-12T01:36:12.137Z,0
2018-02-12T01:37:12.703Z,0
2018-02-12T01:38:13.268Z,0
2018-02-12T01:39:13.835Z,0
2018-02-12T01:40:14.401Z,0
2018-02-12T01:41:14.968Z,0
2018-02-12T01:42:15.536Z,0
2018-02-12T01:43:16.102Z,0
2018-02-12T01:44:16.668Z,0
2018-02-12T01:45:17.236Z,0
2018-02-12T01:46:17.814Z,0
2018-02-12T01:47:18.380Z,0
2018-02-12T01:48:18.946Z,0
2018-02-12T01:49:19.516Z,0
2018-02-12T01:50:20.094Z,0
2018-02-12T01:51:20.661Z,0
2018-02-12T01:52:21.227Z,0
2018-02-12T01:53:21.798Z,0
2018-02-12T01:54:22.359Z,0
2018-02-12T01:55:22.925Z,0
2018-02-12T01:56:23.491Z,0
2018-02-12T01:57:24.057Z,0
2018-02-12T01:58:24.625Z,0
2018-02-12T01:59:25.190Z,0
2018-02-12T02:00:25.757Z,0
2018-02-12T02:01:26.325Z,0
2018-02-12T02:02:26.891Z,0
2018-02-12T02:03:27.472Z,0
2018-02-12T02:04:28.041Z,0
2018-02-12T02:05:28.606Z,0
2018-02-12T02:06:29.174Z,0
2018-02-12T02:07:29.738Z,0
2018-02-12T02:08:30.303Z,0
2018-02-12T02:09:30.874Z,0
2018-02-12T02:10:31.435Z,0
2018-02-12T02:11:32.002Z,0
2018-02-12T02:12:32.569Z,0
2018-02-12T02:13:33.136Z,0
2018-02-12T02:14:33.702Z,0
2018-02-12T02:15:34.267Z,0
2018-02-12T02:16:34.845Z,0
2018-02-12T02:17:35.410Z,0
2018-02-12T02:18:35.976Z,0
2018-02-12T02:19:36.555Z,0
2018-02-12T02:20:37.122Z,0
2018-02-12T02:21:37.688Z,0
2018-02-12T02:22:38.256Z,0
2018-02-12T02:23:38.821Z,0
2018-02-12T02:24:39.389Z,0
2018-02-12T02:25:39.954Z,0
2018-02-12T02:26:40.520Z,0
2018-02-12T02:27:41.089Z,0
2018-02-12T02:28:41.664Z,0
2018-02-12T02:29:42.245Z,0
2018-02-12T02:30:42.823Z,0
2018-02-12T02:31:43.391Z,0
2018-02-12T02:32:43.957Z,0
2018-02-12T02:33:44.523Z,0
2018-02-12T02:34:45.088Z,0
2018-02-12T02:35:45.654Z,0
2018-02-12T02:36:46.232Z,0
2018-02-12T02:37:46.788Z,0
2018-02-12T02:38:47.360Z,0
2018-02-12T02:39:47.937Z,0
2018-02-12T02:40:48.517Z,0
2018-02-12T02:41:49.095Z,0
2018-02-12T02:42:49.664Z,0
2018-02-12T02:43:50.243Z,0
2018-02-12T02:44:50.810Z,0
2018-02-12T02:45:51.399Z,0
2018-02-12T02:46:51.942Z,0
2018-02-12T02:47:52.507Z,0
2018-02-12T02:48:53.071Z,0
2018-02-12T02:49:53.638Z,0
2018-02-12T02:50:54.204Z,0
2018-02-12T02:51:54.770Z,0
2018-02-12T02:52:55.336Z,0
2018-02-12T02:53:55.904Z,0
2018-02-12T02:54:56.484Z,0
2018-02-12T02:55:57.064Z,0
2018-02-12T02:56:57.629Z,0
2018-02-12T02:57:58.208Z,0
2018-02-12T02:58:58.774Z,0
2018-02-12T02:59:59.339Z,0
2018-02-12T03:00:59.908Z,0
2018-02-12T03:02:00.486Z,0
2018-02-12T03:03:01.051Z,0
2018-02-12T03:04:01.619Z,0
2018-02-12T03:05:02.183Z,0
2018-02-12T03:06:02.749Z,0
2018-02-12T03:07:03.316Z,0
2018-02-12T03:08:03.885Z,0
2018-02-12T03:09:04.464Z,0
2018-02-12T03:10:05.033Z,0
2018-02-12T03:11:05.598Z,0
2018-02-12T03:12:06.162Z,0
2018-02-12T03:13:06.728Z,0
2018-02-12T03:14:07.295Z,0
2018-02-12T03:15:07.872Z,0
2018-02-12T03:16:08.437Z,0
2018-02-12T03:17:09.003Z,0
2018-02-12T03:18:09.571Z,0
2018-02-12T03:19:10.138Z,0
2018-02-12T03:20:10.707Z,0
2018-02-12T03:21:11.271Z,0
2018-02-12T03:22:11.837Z,0
2018-02-12T03:23:12.401Z,0
2018-02-12T03:24:12.966Z,0
2018-02-12T03:25:13.534Z,0
2018-02-12T03:26:14.099Z,0
2018-02-12T03:27:14.666Z,0
2018-02-12T03:28:15.230Z,0
2018-02-12T03:29:15.797Z,0
2018-02-12T03:30:16.362Z,0
2018-02-12T03:31:16.985Z,0
2018-02-12T03:32:17.494Z,0
2018-02-12T03:33:18.059Z,0
2018-02-12T03:34:18.627Z,0
2018-02-12T03:35:19.192Z,0
2018-02-12T03:36:19.758Z,0
2018-02-12T03:37:20.322Z,0
2018-02-12T03:38:20.903Z,0
2018-02-12T03:39:21.469Z,0
2018-02-12T03:40:22.049Z,0
2018-02-12T03:41:22.614Z,0
2018-02-12T03:42:23.184Z,0
2018-02-12T03:43:23.749Z,0
2018-02-12T03:44:24.319Z,0
2018-02-12T03:45:24.883Z,0
2018-02-12T03:46:25.446Z,0
2018-02-12T03:47:26.013Z,0
2018-02-12T03:48:26.580Z,0
2018-02-12T03:49:27.146Z,0
2018-02-12T03:50:27.714Z,0
2018-02-12T03:51:28.279Z,0
2018-02-12T03:52:28.844Z,0
2018-02-12T03:53:29.408Z,0
2018-02-12T03:54:29.988Z,0
2018-02-12T03:55:30.555Z,0
2018-02-12T03:56:31.118Z,0
2018-02-12T03:57:31.683Z,0
2018-02-12T03:58:32.248Z,0
2018-02-12T03:59:32.814Z,0
2018-02-12T04:00:33.382Z,0
2018-02-12T04:01:33.945Z,0
2018-02-12T04:02:34.511Z,0
2018-02-12T04:03:35.077Z,0
2018-02-12T04:04:35.640Z,0
2018-02-12T04:05:36.204Z,0
2018-02-12T04:06:36.769Z,0
2018-02-12T04:07:37.336Z,0
2018-02-12T04:08:37.903Z,0
2018-02-12T04:09:38.469Z,0
2018-02-12T04:10:39.039Z,0
2018-02-12T04:11:39.598Z,0
2018-02-12T04:12:40.175Z,0
2018-02-12T04:13:40.740Z,0
2018-02-12T04:14:41.304Z,0
2018-02-12T04:15:41.882Z,0
2018-02-12T04:16:42.447Z,0
2018-02-12T04:17:43.013Z,0
2018-02-12T04:18:43.579Z,0
2018-02-12T04:19:44.141Z,0
2018-02-12T04:20:44.705Z,0
2018-02-12T04:21:45.269Z,0
2018-02-12T04:22:45.833Z,0
2018-02-12T04:23:46.397Z,0
2018-02-12T04:24:46.960Z,0
2018-02-12T04:25:47.526Z,0
2018-02-12T04:26:48.091Z,0
2018-02-12T04:27:48.656Z,0
2018-02-12T04:28:49.223Z,0
2018-02-12T04:29:49.785Z,0
2018-02-12T04:30:50.351Z,0
2018-02-12T04:31:50.914Z,0
2018-02-12T04:32:51.477Z,0
2018-02-12T04:33:52.041Z,0
2018-02-12T04:34:52.607Z,0
2018-02-12T04:35:53.186Z,0
2018-02-12T04:36:53.750Z,0
2018-02-12T04:37:54.314Z,0
2018-02-12T04:38:54.880Z,0
2018-02-12T04:39:55.446Z,0
2018-02-12T04:40:56.024Z,0
2018-02-12T04:41:56.590Z,0
2018-02-12T04:42:57.157Z,0
2018-02-12T04:43:57.735Z,0
2018-02-12T04:44:58.302Z,0
2018-02-12T04:45:58.868Z,0
2018-02-12T04:46:59.435Z,0
2018-02-12T04:48:00.015Z,0
2018-02-12T04:49:00.579Z,0
2018-02-12T04:50:01.146Z,0
2018-02-12T04:51:01.711Z,0
2018-02-12T04:52:02.277Z,0
2018-02-12T04:53:02.840Z,0
2018-02-12T04:54:03.408Z,0
2018-02-12T04:55:03.975Z,0
2018-02-12T04:56:04.541Z,0
2018-02-12T04:57:05.107Z,0
2018-02-12T04:58:05.687Z,0
2018-02-12T04:59:06.252Z,0
2018-02-12T05:00:06.817Z,0
2018-02-12T05:01:07.381Z,0
2018-02-12T05:02:07.946Z,0
2018-02-12T05:03:08.512Z,0
2018-02-12T05:04:09.090Z,0
2018-02-12T05:05:09.655Z,0
2018-02-12T05:06:10.219Z,0
2018-02-12T05:07:10.785Z,0
2018-02-12T05:08:11.353Z,0
2018-02-12T05:09:11.930Z,0
2018-02-12T05:10:12.497Z,0
2018-02-12T05:11:13.064Z,0
2018-02-12T05:12:13.630Z,0
2018-02-12T05:13:14.196Z,0
2018-02-12T05:14:14.761Z,0
2018-02-12T05:15:15.326Z,0
2018-02-12T05:16:15.905Z,0
2018-02-12T05:17:16.469Z,0
2018-02-12T05:18:17.034Z,0
2018-02-12T05:19:17.598Z,0
2018-02-12T05:20:18.164Z,0
2018-02-12T05:21:18.733Z,0
2018-02-12T05:22:19.312Z,0
2018-02-12T05:23:19.876Z,0
2018-02-12T05:24:20.443Z,0
2018-02-12T05:25:21.008Z,0
2018-02-12T05:26:21.587Z,0
2018-02-12T05:27:22.153Z,0
2018-02-12T05:28:22.718Z,0
2018-02-12T05:29:23.283Z,0
2018-02-12T05:30:23.849Z,0
2018-02-12T05:31:24.415Z,0
2018-02-12T05:32:24.981Z,0
2018-02-12T05:33:25.546Z,0
2018-02-12T05:34:26.125Z,0
2018-02-12T05:35:26.692Z,0
2018-02-12T05:36:27.273Z,0
2018-02-12T05:37:27.839Z,0
2018-02-12T05:38:28.407Z,0
2018-02-12T05:39:28.971Z,0
2018-02-12T05:40:29.536Z,0
2018-02-12T05:41:30.101Z,0
2018-02-12T05:42:30.667Z,0
2018-02-12T05:43:31.228Z,0
2018-02-12T05:44:31.794Z,0
2018-02-12T05:45:32.361Z,0
2018-02-12T05:46:32.928Z,0
2018-02-12T05:47:33.508Z,0
2018-02-12T05:48:34.076Z,0
2018-02-12T05:49:34.638Z,0
2018-02-12T05:50:35.216Z,0
2018-02-12T05:51:35.797Z,0
2018-02-12T05:52:36.376Z,0
2018-02-12T05:53:36.944Z,0
2018-02-12T05:54:37.523Z,0
2018-02-12T05:55:38.087Z,0
2018-02-12T05:56:38.654Z,0
2018-02-12T05:57:39.220Z,0
2018-02-12T05:58:39.788Z,0
2018-02-12T05:59:40.351Z,0
2018-02-12T06:00:40.929Z,0
2018-02-12T06:01:41.497Z,0
2018-02-12T06:02:42.079Z,0
2018-02-12T06:03:42.643Z,0
2018-02-12T06:04:43.222Z,0
2018-02-12T06:05:43.788Z,0
2018-02-12T06:06:44.353Z,0
2018-02-12T06:07:44.918Z,0
2018-02-12T06:08:45.484Z,0
2018-02-12T06:09:46.053Z,0
2018-02-12T06:10:46.632Z,0
2018-02-12T06:11:47.211Z,0
2018-02-12T06:12:47.779Z,0
2018-02-12T06:13:48.355Z,0
2018-02-12T06:14:48.921Z,0
2018-02-12T06:15:49.485Z,0
2018-02-12T06:16:50.052Z,0
2018-02-12T06:17:50.626Z,0
2018-02-12T06:18:51.191Z,0
2018-02-12T06:19:51.755Z,0
2018-02-12T06:20:52.324Z,0
2018-02-12T06:21:52.903Z,0
2018-02-12T06:22:53.466Z,0
2018-02-12T06:23:54.032Z,0
2018-02-12T06:24:54.597Z,0
2018-02-12T06:25:55.176Z,0
2018-02-12T06:26:55.739Z,0
2018-02-12T06:27:56.318Z,0
2018-02-12T06:28:56.882Z,0
2018-02-12T06:29:57.448Z,0
2018-02-12T06:30:58.019Z,0
2018-02-12T06:31:58.583Z,0
2018-02-12T06:32:59.149Z,0
2018-02-12T06:33:59.717Z,0
2018-02-12T06:35:00.280Z,0
2018-02-12T06:36:00.869Z,0
2018-02-12T06:37:01.413Z,0
2018-02-12T06:38:01.978Z,0
2018-02-12T06:39:02.546Z,0
2018-02-12T06:40:03.111Z,0
2018-02-12T06:41:03.675Z,0
2018-02-12T06:42:04.245Z,0
2018-02-12T06:43:04.804Z,0
2018-02-12T06:44:05.368Z,0
2018-02-12T06:45:05.935Z,0
2018-02-12T06:46:06.500Z,0
2018-02-12T06:47:07.068Z,0
2018-02-12T06:48:07.631Z,0
2018-02-12T06:49:08.195Z,0
2018-02-12T06:50:08.760Z,0
2018-02-12T06:51:09.326Z,0
2018-02-12T06:52:09.891Z,0
2018-02-12T06:53:10.459Z,0
2018-02-12T06:54:11.025Z,0
2018-02-12T06:55:11.604Z,0
2018-02-12T06:56:12.173Z,0
2018-02-12T06:57:12.752Z,0
2018-02-12T06:58:13.319Z,0
2018-02-12T06:59:13.886Z,0
2018-02-12T07:00:14.452Z,0
2018-02-12T07:01:15.020Z,0
2018-02-12T07:02:15.587Z,0
2018-02-12T07:03:16.155Z,0
2018-02-12T07:04:16.719Z,0
2018-02-12T07:05:17.288Z,0
2018-02-12T07:06:17.852Z,0
2018-02-12T07:07:18.418Z,0
2018-02-12T07:08:18.984Z,0
2018-02-12T07:09:19.552Z,0
2018-02-12T07:10:20.118Z,0
2018-02-12T07:11:20.683Z,0
2018-02-12T07:12:21.249Z,0
2018-02-12T07:13:21.816Z,0
2018-02-12T07:14:22.383Z,0
2018-02-12T07:15:22.948Z,0
2018-02-12T07:16:23.516Z,5
2018-02-12T07:17:24.097Z,5
2018-02-12T07:18:24.679Z,5
2018-02-12T07:19:25.246Z,5
2018-02-12T07:20:25.816Z,5
2018-02-12T07:21:26.380Z,5
2018-02-12T07:22:26.945Z,5
2018-02-12T07:23:27.515Z,5
2018-02-12T07:24:28.084Z,10
2018-02-12T07:25:28.668Z,10
2018-02-12T07:26:29.237Z,10
2018-02-12T07:27:29.807Z,10
2018-02-12T07:28:30.375Z,10
2018-02-12T07:29:30.956Z,10
2018-02-12T07:30:31.523Z,10
2018-02-12T07:31:32.094Z,10
2018-02-12T07:32:32.661Z,10
2018-02-12T07:33:33.230Z,15
2018-02-12T07:34:33.799Z,15
2018-02-12T07:35:34.369Z,15
2018-02-12T07:36:34.938Z,15
2018-02-12T07:37:35.506Z,10
2018-02-12T07:38:36.077Z,10
2018-02-12T07:39:36.647Z,10
2018-02-12T07:40:37.216Z,10
2018-02-12T07:41:37.786Z,10
2018-02-12T07:42:38.394Z,10
2018-02-12T07:43:38.954Z,10
2018-02-12T07:44:39.537Z,10
2018-02-12T07:45:40.108Z,10
2018-02-12T07:46:40.677Z,10
2018-02-12T07:47:41.247Z,10
2018-02-12T07:48:41.817Z,10
2018-02-12T07:49:42.388Z,15
2018-02-12T07:50:42.956Z,15
2018-02-12T07:51:43.538Z,15
2018-02-12T07:52:44.110Z,15
2018-02-12T07:53:44.678Z,15
2018-02-12T07:54:45.248Z,15
2018-02-12T07:55:45.819Z,10
2018-02-12T07:56:46.388Z,10
2018-02-12T07:57:46.957Z,10
2018-02-12T07:58:47.527Z,10
2018-02-12T07:59:48.112Z,10
2018-02-12T08:00:48.694Z,10
2018-02-12T08:01:49.277Z,10
2018-02-12T08:02:49.846Z,10
2018-02-12T08:03:50.415Z,10
2018-02-12T08:04:50.988Z,10
2018-02-12T08:05:51.553Z,10
2018-02-12T08:06:52.121Z,10
2018-02-12T08:07:52.693Z,10
2018-02-12T08:08:53.261Z,10
2018-02-12T08:09:53.829Z,10
2018-02-12T08:10:54.398Z,10
2018-02-12T08:11:54.968Z,10
2018-02-12T08:12:55.551Z,10
2018-02-12T08:13:56.121Z,10
2018-02-12T08:14:56.690Z,10
2018-02-12T08:15:57.309Z,10
2018-02-12T08:16:57.829Z,10
2018-02-12T08:17:58.398Z,10
2018-02-12T08:18:58.972Z,10
2018-02-12T08:19:59.536Z,10
2018-02-12T08:21:00.121Z,10
2018-02-12T08:22:00.689Z,10
2018-02-12T08:23:01.258Z,10
2018-02-12T08:24:01.829Z,10
2018-02-12T08:25:02.398Z,10
2018-02-12T08:26:02.981Z,10
2018-02-12T08:27:03.550Z,10
2018-02-12T08:28:04.123Z,10
2018-02-12T08:29:04.690Z,10
2018-02-12T08:30:05.256Z,15
2018-02-12T08:31:05.838Z,15
2018-02-12T08:32:06.406Z,20
2018-02-12T08:33:06.976Z,20
2018-02-12T08:34:07.559Z,20
2018-02-12T08:35:08.130Z,20
2018-02-12T08:36:08.699Z,20
2018-02-12T08:37:09.269Z,20
2018-02-12T08:38:09.839Z,20
2018-02-12T08:39:10.407Z,15
2018-02-12T08:40:10.990Z,15
2018-02-12T08:41:11.561Z,15
2018-02-12T08:42:12.130Z,20
2018-02-12T08:43:12.700Z,20
2018-02-12T08:44:13.267Z,20
2018-02-12T08:45:13.839Z,20
2018-02-12T08:46:14.407Z,20
2018-02-12T08:47:14.975Z,20
2018-02-12T08:48:15.547Z,20
2018-02-12T08:49:16.161Z,20
2018-02-12T08:50:16.683Z,20
2018-02-12T08:51:17.255Z,15
2018-02-12T08:52:17.824Z,15
2018-02-12T08:53:18.392Z,15
2018-02-12T08:54:18.963Z,15
2018-02-12T08:55:19.545Z,15
2018-02-12T08:56:20.114Z,15
2018-02-12T08:57:20.684Z,20
2018-02-12T08:58:21.253Z,20
2018-02-12T08:59:21.824Z,20
2018-02-12T09:00:22.393Z,15
2018-02-12T09:01:22.962Z,15
2018-02-12T09:02:23.532Z,15
2018-02-12T09:03:24.102Z,15
2018-02-12T09:04:24.670Z,15
2018-02-12T09:05:25.239Z,15
2018-02-12T09:06:25.812Z,10
2018-02-12T09:07:26.380Z,10
2018-02-12T09:08:26.964Z,10
2018-02-12T09:09:27.534Z,10
2018-02-12T09:10:28.105Z,10
2018-02-12T09:11:28.674Z,10
2018-02-12T09:12:29.244Z,15
2018-02-12T09:13:29.815Z,15
2018-02-12T09:14:30.386Z,20
2018-02-12T09:15:30.954Z,20
2018-02-12T09:16:31.560Z,20
2018-02-12T09:17:32.096Z,20
2018-02-12T09:18:32.663Z,20
2018-02-12T09:19:33.234Z,20
2018-02-12T09:20:33.816Z,20
2018-02-12T09:21:34.386Z,20
2018-02-12T09:22:35.003Z,20
2018-02-12T09:23:35.553Z,20
2018-02-12T09:24:36.135Z,20
2018-02-12T09:25:36.703Z,20
2018-02-12T09:26:37.272Z,20
2018-02-12T09:27:37.841Z,20
2018-02-12T09:28:38.411Z,20
2018-02-12T09:29:38.979Z,20
2018-02-12T09:30:39.549Z,20
2018-02-12T09:31:40.133Z,20
2018-02-12T09:32:40.704Z,20
2018-02-12T09:33:41.273Z,20
2018-02-12T09:34:41.843Z,20
2018-02-12T09:35:42.413Z,20
2018-02-12T09:36:42.982Z,20
2018-02-12T09:37:43.552Z,20
2018-02-12T09:38:44.123Z,20
2018-02-12T09:39:44.692Z,20
2018-02-12T09:40:45.261Z,20
2018-02-12T09:41:45.832Z,20
2018-02-12T09:42:46.401Z,20
2018-02-12T09:43:46.983Z,20
2018-02-12T09:44:47.553Z,20
2018-02-12T09:45:48.123Z,20
2018-02-12T09:46:48.691Z,20
2018-02-12T09:47:49.262Z,20
2018-02-12T09:48:49.832Z,20
2018-02-12T09:49:50.401Z,20
2018-02-12T09:50:50.971Z,20
2018-02-12T09:51:51.541Z,20
2018-02-12T09:52:52.115Z,20
2018-02-12T09:53:52.678Z,20
2018-02-12T09:54:53.248Z,20
2018-02-12T09:55:53.817Z,20
2018-02-12T09:56:54.386Z,20
2018-02-12T09:57:54.954Z,20
2018-02-12T09:58:55.524Z,20
2018-02-12T09:59:56.096Z,20
2018-02-12T10:00:56.679Z,20
2018-02-12T10:01:57.262Z,20
2018-02-12T10:02:57.832Z,20
2018-02-12T10:03:58.401Z,20
2018-02-12T10:04:58.971Z,20
2018-02-12T10:05:59.541Z,20
2018-02-12T10:07:00.112Z,20
2018-02-12T10:08:00.692Z,20
2018-02-12T10:09:01.263Z,20
2018-02-12T10:10:01.833Z,20
2018-02-12T10:11:02.403Z,20
2018-02-12T10:12:02.973Z,20
2018-02-12T10:13:03.540Z,20
2018-02-12T10:14:04.124Z,20
2018-02-12T10:15:04.694Z,20
2018-02-12T10:16:05.277Z,20
2018-02-12T10:17:05.893Z,20
2018-02-12T10:18:06.415Z,20
2018-02-12T10:19:06.985Z,20
2018-02-12T10:20:07.553Z,20
2018-02-12T10:21:08.122Z,20
2018-02-12T10:22:08.694Z,20
2018-02-12T10:23:09.262Z,20
2018-02-12T10:24:09.833Z,20
2018-02-12T10:25:10.404Z,20
2018-02-12T10:26:10.994Z,20
2018-02-12T10:27:11.543Z,20
2018-02-12T10:28:12.111Z,20
2018-02-12T10:29:12.681Z,20
2018-02-12T10:30:13.252Z,20
2018-02-12T10:31:13.819Z,20
2018-02-12T10:32:14.401Z,20
2018-02-12T10:33:14.962Z,20
2018-02-12T10:34:15.530Z,20
2018-02-12T10:35:16.101Z,25
2018-02-12T10:36:16.672Z,25
2018-02-12T10:37:17.242Z,25
2018-02-12T10:38:17.813Z,25
2018-02-12T10:39:18.386Z,25
2018-02-12T10:40:18.967Z,25
2018-02-12T10:41:19.550Z,25
2018-02-12T10:42:20.182Z,25
2018-02-12T10:43:20.702Z,25
2018-02-12T10:44:21.286Z,25
2018-02-12T10:45:21.855Z,25
2018-02-12T10:46:22.424Z,25
2018-02-12T10:47:22.993Z,25
2018-02-12T10:48:23.568Z,25
2018-02-12T10:49:24.137Z,25
2018-02-12T10:50:24.708Z,25
2018-02-12T10:51:25.278Z,25
2018-02-12T10:52:25.848Z,25
2018-02-12T10:53:26.472Z,25
2018-02-12T10:54:26.989Z,25
2018-02-12T10:55:27.558Z,25
2018-02-12T10:56:28.128Z,25
2018-02-12T10:57:28.703Z,25
2018-02-12T10:58:29.285Z,25
2018-02-12T10:59:29.853Z,25
2018-02-12T11:00:30.473Z,25
2018-02-12T11:01:31.044Z,25
2018-02-12T11:02:31.612Z,25
2018-02-12T11:03:32.184Z,25
2018-02-12T11:04:32.753Z,25
2018-02-12T11:05:33.322Z,25
2018-02-12T11:06:33.893Z,25
2018-02-12T11:07:34.465Z,25
2018-02-12T11:08:35.034Z,25
2018-02-12T11:09:35.618Z,25
2018-02-12T11:10:36.186Z,20
2018-02-12T11:11:36.759Z,15
2018-02-12T11:12:37.327Z,25
2018-02-12T11:13:37.897Z,15
2018-02-12T11:14:38.467Z,15
2018-02-12T11:15:39.037Z,25
2018-02-12T11:16:39.607Z,25
2018-02-12T11:17:40.176Z,25
2018-02-12T11:18:40.747Z,25
2018-02-12T11:19:41.320Z,25
2018-02-12T11:20:41.890Z,25
2018-02-12T11:21:42.495Z,25
2018-02-12T11:22:43.032Z,25
2018-02-12T11:23:43.607Z,25
2018-02-12T11:24:44.172Z,20
2018-02-12T11:25:44.743Z,15
2018-02-12T11:26:45.313Z,25
2018-02-12T11:27:45.883Z,25
2018-02-12T11:28:46.456Z,30
2018-02-12T11:29:47.040Z,30
2018-02-12T11:30:47.611Z,35
2018-02-12T11:31:48.182Z,30
2018-02-12T11:32:48.753Z,30
2018-02-12T11:33:49.322Z,30
2018-02-12T11:34:49.891Z,25
2018-02-12T11:35:50.463Z,30
2018-02-12T11:36:51.033Z,30
2018-02-12T11:37:51.602Z,30
2018-02-12T11:38:52.186Z,30
2018-02-12T11:39:52.756Z,30
2018-02-12T11:40:53.326Z,25
2018-02-12T11:41:53.898Z,25
2018-02-12T11:42:54.484Z,25
2018-02-12T11:43:55.053Z,30
2018-02-12T11:44:55.619Z,20
2018-02-12T11:45:56.190Z,20
2018-02-12T11:46:56.776Z,25
2018-02-12T11:47:57.362Z,25
2018-02-12T11:48:57.940Z,20
2018-02-12T11:49:58.501Z,20
2018-02-12T11:50:59.072Z,20
2018-02-12T11:51:59.642Z,25
2018-02-12T11:53:00.213Z,20
2018-02-12T11:54:00.782Z,25
2018-02-12T11:55:01.353Z,25
2018-02-12T11:56:01.925Z,25
2018-02-12T11:57:02.494Z,20
2018-02-12T11:58:03.064Z,30
2018-02-12T11:59:03.635Z,30
2018-02-12T12:00:04.205Z,30
2018-02-12T12:01:04.825Z,30
2018-02-12T12:02:05.396Z,30
2018-02-12T12:03:05.966Z,20
2018-02-12T12:04:06.538Z,30
2018-02-12T12:05:07.107Z,20
2018-02-12T12:06:07.676Z,20
2018-02-12T12:07:08.248Z,25
2018-02-12T12:08:08.820Z,20
2018-02-12T12:09:09.391Z,20
2018-02-12T12:10:09.962Z,20
2018-02-12T12:11:10.546Z,30
2018-02-12T12:12:11.119Z,20
2018-02-12T12:13:11.688Z,20
2018-02-12T12:14:12.258Z,25
2018-02-12T12:15:12.830Z,30
2018-02-12T12:16:13.399Z,20
2018-02-12T12:17:13.971Z,20
2018-02-12T12:18:14.541Z,25
2018-02-12T12:19:15.110Z,25
2018-02-12T12:20:15.683Z,25
2018-02-12T12:21:16.250Z,25
2018-02-12T12:22:16.821Z,25
2018-02-12T12:23:17.393Z,25
2018-02-12T12:24:17.963Z,25
2018-02-12T12:25:18.534Z,20
2018-02-12T12:26:19.107Z,20
2018-02-12T12:27:19.676Z,20
2018-02-12T12:28:20.260Z,20
2018-02-12T12:29:20.830Z,15
2018-02-12T12:30:21.403Z,15
2018-02-12T12:31:21.972Z,15
2018-02-12T12:32:22.544Z,15
2018-02-12T12:33:23.114Z,20
2018-02-12T12:34:23.684Z,20
2018-02-12T12:35:24.258Z,20
2018-02-12T12:36:24.827Z,20
2018-02-12T12:37:25.409Z,20
2018-02-12T12:38:25.979Z,20
2018-02-12T12:39:26.550Z,20
2018-02-12T12:40:27.126Z,20
2018-02-12T12:41:27.692Z,30
2018-02-12T12:42:28.262Z,20
2018-02-12T12:43:28.834Z,30
2018-02-12T12:44:29.404Z,20
2018-02-12T12:45:29.989Z,20
2018-02-12T12:46:30.566Z,25
2018-02-12T12:47:31.133Z,20
2018-02-12T12:48:31.703Z,15
2018-02-12T12:49:32.274Z,15
2018-02-12T12:50:32.844Z,15
2018-02-12T12:51:33.415Z,15
2018-02-12T12:52:33.987Z,15
2018-02-12T12:53:34.557Z,15
2018-02-12T12:54:35.127Z,15
2018-02-12T12:55:35.698Z,15
2018-02-12T12:56:36.269Z,15
2018-02-12T12:57:36.838Z,15
2018-02-12T12:58:37.410Z,15
2018-02-12T12:59:37.980Z,15
2018-02-12T13:00:38.549Z,15
2018-02-12T13:01:39.118Z,15
2018-02-12T13:02:39.702Z,15
2018-02-12T13:03:40.273Z,15
2018-02-12T13:04:40.844Z,15
2018-02-12T13:05:41.414Z,25
2018-02-12T13:06:41.997Z,20
2018-02-12T13:07:42.567Z,20
2018-02-12T13:08:43.140Z,15
2018-02-12T13:09:43.710Z,20
2018-02-12T13:10:44.281Z,15
2018-02-12T13:11:44.853Z,15
2018-02-12T13:12:45.437Z,15
2018-02-12T13:13:46.010Z,15
2018-02-12T13:14:46.592Z,15
2018-02-12T13:15:47.162Z,20
2018-02-12T13:16:47.731Z,25
2018-02-12T13:17:48.308Z,25
2018-02-12T13:18:48.878Z,25
2018-02-12T13:19:49.460Z,25
2018-02-12T13:20:50.030Z,20
2018-02-12T13:21:50.600Z,20
2018-02-12T13:22:51.173Z,25
2018-02-12T13:23:51.742Z,25
2018-02-12T13:24:52.327Z,25
2018-02-12T13:25:52.898Z,25
2018-02-12T13:26:53.472Z,15
2018-02-12T13:27:54.041Z,20
2018-02-12T13:28:54.611Z,15
2018-02-12T13:29:55.183Z,15
2018-02-12T13:30:55.752Z,15
2018-02-12T13:31:56.322Z,20
2018-02-12T13:32:56.895Z,20
2018-02-12T13:33:57.464Z,25
2018-02-12T13:34:58.035Z,25
2018-02-12T13:35:58.605Z,25
2018-02-12T13:36:59.176Z,25
2018-02-12T13:37:59.748Z,25
2018-02-12T13:39:00.319Z,25
2018-02-12T13:40:00.890Z,30
2018-02-12T13:41:01.464Z,30
2018-02-12T13:42:02.030Z,30
2018-02-12T13:43:02.616Z,30
2018-02-12T13:44:03.188Z,25
2018-02-12T13:45:03.761Z,25
2018-02-12T13:46:04.332Z,25
2018-02-12T13:47:04.902Z,25
2018-02-12T13:48:05.476Z,25
2018-02-12T13:49:06.100Z,20
2018-02-12T13:50:06.617Z,30
2018-02-12T13:51:07.187Z,30
2018-02-12T13:52:07.757Z,25
2018-02-12T13:53:08.329Z,20
2018-02-12T13:54:08.912Z,20
2018-02-12T13:55:09.484Z,20
2018-02-12T13:56:10.055Z,20
2018-02-12T13:57:10.625Z,20
2018-02-12T13:58:11.199Z,15
2018-02-12T13:59:11.786Z,15
2018-02-12T14:00:12.356Z,15
2018-02-12T14:01:12.927Z,15
2018-02-12T14:02:13.497Z,15
2018-02-12T14:03:14.078Z,15
2018-02-12T14:04:14.650Z,15
2018-02-12T14:05:15.222Z,15
2018-02-12T14:06:15.794Z,15
2018-02-12T14:07:16.365Z,20
2018-02-12T14:08:16.938Z,20
2018-02-12T14:09:17.509Z,20
2018-02-12T14:10:18.079Z,25
2018-02-12T14:11:18.651Z,25
2018-02-12T14:12:19.221Z,25
2018-02-12T14:13:19.792Z,25
2018-02-12T14:14:20.363Z,25
2018-02-12T14:15:20.934Z,25
2018-02-12T14:16:21.505Z,25
2018-02-12T14:17:22.077Z,20
2018-02-12T14:18:22.647Z,20
2018-02-12T14:19:23.219Z,20
2018-02-12T14:20:23.790Z,20
2018-02-12T14:21:24.362Z,20
2018-02-12T14:22:24.932Z,20
2018-02-12T14:23:25.504Z,20
2018-02-12T14:24:26.075Z,20
2018-02-12T14:25:26.648Z,20
2018-02-12T14:26:27.233Z,20
2018-02-12T14:27:27.809Z,20
2018-02-12T14:28:28.379Z,20
2018-02-12T14:29:28.951Z,20
2018-02-12T14:30:29.520Z,20
2018-02-12T14:31:30.092Z,20
2018-02-12T14:32:30.664Z,15
2018-02-12T14:33:31.234Z,20
2018-02-12T14:34:31.805Z,20
2018-02-12T14:35:32.377Z,20
2018-02-12T14:36:32.948Z,20
2018-02-12T14:37:33.520Z,20
2018-02-12T14:38:34.092Z,20
2018-02-12T14:39:34.663Z,25